sensor_id;sensor_type;location;lat;lon;timestamp;temperature;humidity
27823;DHT22;29019;47.630;8.262;2023-03-23T00:02:24;21.40;33.30
27823;DHT22;29019;47.630;8.262;2023-03-23T00:06:27;21.40;33.30
27823;DHT22;29019;47.630;8.262;2023-03-23T00:10:27;21.40;33.30
27823;DHT22;29019;47.630;8.262;2023-03-23T00:14:33;21.40;33.30
27823;DHT22;29019;47.630;8.262;2023-03-23T00:18:41;21.30;33.30
27823;DHT22;29019;47.630;8.262;2023-03-23T00:22:41;21.30;33.30
27823;DHT22;29019;47.630;8.262;2023-03-23T00:26:46;21.30;33.30
27823;DHT22;29019;47.630;8.262;2023-03-23T00:30:47;21.30;33.40
27823;DHT22;29019;47.630;8.262;2023-03-23T00:34:47;21.30;33.40
27823;DHT22;29019;47.630;8.262;2023-03-23T00:38:49;21.30;33.40
27823;DHT22;29019;47.630;8.262;2023-03-23T00:42:50;21.30;33.50
27823;DHT22;29019;47.630;8.262;2023-03-23T00:46:50;21.30;33.40
27823;DHT22;29019;47.630;8.262;2023-03-23T00:50:51;21.30;33.40
27823;DHT22;29019;47.630;8.262;2023-03-23T00:54:52;21.20;33.40
27823;DHT22;29019;47.630;8.262;2023-03-23T00:58:52;21.20;33.40
27823;DHT22;29019;47.630;8.262;2023-03-23T01:02:53;21.20;33.50
27823;DHT22;29019;47.630;8.262;2023-03-23T01:06:54;21.20;33.50
27823;DHT22;29019;47.630;8.262;2023-03-23T01:11:01;21.20;33.50
27823;DHT22;29019;47.630;8.262;2023-03-23T01:15:02;21.20;33.50
27823;DHT22;29019;47.630;8.262;2023-03-23T01:19:03;21.10;33.50
27823;DHT22;29019;47.630;8.262;2023-03-23T01:23:03;21.10;33.60
27823;DHT22;29019;47.630;8.262;2023-03-23T01:27:04;21.10;33.50
27823;DHT22;29019;47.630;8.262;2023-03-23T01:31:09;21.20;33.50
27823;DHT22;29019;47.630;8.262;2023-03-23T01:35:12;21.20;33.60
27823;DHT22;29019;47.630;8.262;2023-03-23T01:39:12;21.10;33.50
27823;DHT22;29019;47.630;8.262;2023-03-23T01:43:13;21.10;33.60
27823;DHT22;29019;47.630;8.262;2023-03-23T01:47:14;21.10;33.50
27823;DHT22;29019;47.630;8.262;2023-03-23T01:51:15;21.10;33.60
27823;DHT22;29019;47.630;8.262;2023-03-23T01:55:17;21.10;33.60
27823;DHT22;29019;47.630;8.262;2023-03-23T01:59:18;21.10;33.60
27823;DHT22;29019;47.630;8.262;2023-03-23T02:03:19;21.00;33.60
27823;DHT22;29019;47.630;8.262;2023-03-23T02:07:20;21.10;33.60
27823;DHT22;29019;47.630;8.262;2023-03-23T02:11:21;21.00;33.60
27823;DHT22;29019;47.630;8.262;2023-03-23T02:15:23;21.00;33.60
27823;DHT22;29019;47.630;8.262;2023-03-23T02:28:08;21.00;33.60
27823;DHT22;29019;47.630;8.262;2023-03-23T02:36:40;21.00;33.70
27823;DHT22;29019;47.630;8.262;2023-03-23T02:40:44;20.90;33.70
27823;DHT22;29019;47.630;8.262;2023-03-23T02:44:46;20.90;33.70
27823;DHT22;29019;47.630;8.262;2023-03-23T02:48:47;20.90;33.60
27823;DHT22;29019;47.630;8.262;2023-03-23T02:52:51;20.90;33.70
27823;DHT22;29019;47.630;8.262;2023-03-23T02:56:53;20.90;33.70
27823;DHT22;29019;47.630;8.262;2023-03-23T03:00:54;20.90;33.70
27823;DHT22;29019;47.630;8.262;2023-03-23T03:05:01;20.90;33.70
27823;DHT22;29019;47.630;8.262;2023-03-23T03:13:25;20.90;33.80
27823;DHT22;29019;47.630;8.262;2023-03-23T03:17:28;20.90;33.80
27823;DHT22;29019;47.630;8.262;2023-03-23T03:21:30;20.80;33.80
27823;DHT22;29019;47.630;8.262;2023-03-23T03:25:31;20.90;33.80
27823;DHT22;29019;47.630;8.262;2023-03-23T03:29:32;20.80;33.80
27823;DHT22;29019;47.630;8.262;2023-03-23T03:33:34;20.90;33.80
27823;DHT22;29019;47.630;8.262;2023-03-23T03:37:35;20.80;33.70
27823;DHT22;29019;47.630;8.262;2023-03-23T03:41:40;20.80;33.80
27823;DHT22;29019;47.630;8.262;2023-03-23T03:45:40;20.80;33.80
27823;DHT22;29019;47.630;8.262;2023-03-23T03:49:42;20.80;33.80
27823;DHT22;29019;47.630;8.262;2023-03-23T03:53:42;20.80;33.90
27823;DHT22;29019;47.630;8.262;2023-03-23T03:57:43;20.80;33.90
27823;DHT22;29019;47.630;8.262;2023-03-23T04:01:43;20.70;33.80
27823;DHT22;29019;47.630;8.262;2023-03-23T04:05:44;20.70;33.90
27823;DHT22;29019;47.630;8.262;2023-03-23T04:09:45;20.80;33.90
27823;DHT22;29019;47.630;8.262;2023-03-23T04:13:46;20.80;33.90
27823;DHT22;29019;47.630;8.262;2023-03-23T04:17:47;20.70;33.80
27823;DHT22;29019;47.630;8.262;2023-03-23T04:21:47;20.80;33.90
27823;DHT22;29019;47.630;8.262;2023-03-23T04:25:49;20.70;33.80
27823;DHT22;29019;47.630;8.262;2023-03-23T04:29:50;20.70;33.80
27823;DHT22;29019;47.630;8.262;2023-03-23T04:33:51;20.70;33.90
27823;DHT22;29019;47.630;8.262;2023-03-23T04:37:55;20.70;33.80
27823;DHT22;29019;47.630;8.262;2023-03-23T04:41:55;20.70;33.80
27823;DHT22;29019;47.630;8.262;2023-03-23T04:46:01;20.70;33.80
27823;DHT22;29019;47.630;8.262;2023-03-23T04:50:02;20.70;33.80
27823;DHT22;29019;47.630;8.262;2023-03-23T04:54:03;20.70;33.90
27823;DHT22;29019;47.630;8.262;2023-03-23T04:58:03;20.70;33.80
27823;DHT22;29019;47.630;8.262;2023-03-23T05:02:04;20.70;33.80
27823;DHT22;29019;47.630;8.262;2023-03-23T05:06:04;20.70;33.80
27823;DHT22;29019;47.630;8.262;2023-03-23T05:10:05;20.70;33.80
27823;DHT22;29019;47.630;8.262;2023-03-23T05:14:09;20.80;33.90
27823;DHT22;29019;47.630;8.262;2023-03-23T05:18:10;20.90;33.80
27823;DHT22;29019;47.630;8.262;2023-03-23T05:22:11;20.90;33.70
27823;DHT22;29019;47.630;8.262;2023-03-23T05:26:12;21.00;33.70
27823;DHT22;29019;47.630;8.262;2023-03-23T05:30:14;21.10;33.80
27823;DHT22;29019;47.630;8.262;2023-03-23T05:34:16;21.10;33.60
27823;DHT22;29019;47.630;8.262;2023-03-23T05:38:17;21.20;33.70
27823;DHT22;29019;47.630;8.262;2023-03-23T05:42:18;21.30;33.70
27823;DHT22;29019;47.630;8.262;2023-03-23T05:46:18;21.30;33.60
27823;DHT22;29019;47.630;8.262;2023-03-23T05:50:19;21.30;33.60
27823;DHT22;29019;47.630;8.262;2023-03-23T05:54:19;21.40;33.60
27823;DHT22;29019;47.630;8.262;2023-03-23T05:58:20;21.40;33.60
27823;DHT22;29019;47.630;8.262;2023-03-23T06:02:20;21.40;33.60
27823;DHT22;29019;47.630;8.262;2023-03-23T06:06:20;21.40;33.60
27823;DHT22;29019;47.630;8.262;2023-03-23T06:10:21;21.40;33.70
27823;DHT22;29019;47.630;8.262;2023-03-23T06:14:22;21.30;33.60
27823;DHT22;29019;47.630;8.262;2023-03-23T06:18:23;21.30;33.60
27823;DHT22;29019;47.630;8.262;2023-03-23T06:22:24;21.40;33.80
27823;DHT22;29019;47.630;8.262;2023-03-23T06:26:29;21.30;33.50
27823;DHT22;29019;47.630;8.262;2023-03-23T06:30:31;21.30;33.70
27823;DHT22;29019;47.630;8.262;2023-03-23T06:34:31;21.30;33.80
27823;DHT22;29019;47.630;8.262;2023-03-23T06:38:32;21.30;33.80
27823;DHT22;29019;47.630;8.262;2023-03-23T06:42:33;21.30;33.80
27823;DHT22;29019;47.630;8.262;2023-03-23T06:46:33;21.20;33.80
27823;DHT22;29019;47.630;8.262;2023-03-23T06:50:34;21.20;33.80
27823;DHT22;29019;47.630;8.262;2023-03-23T06:54:34;21.20;33.80
27823;DHT22;29019;47.630;8.262;2023-03-23T06:58:35;21.20;33.80
27823;DHT22;29019;47.630;8.262;2023-03-23T07:02:35;21.20;33.80
27823;DHT22;29019;47.630;8.262;2023-03-23T07:06:35;21.30;33.70
27823;DHT22;29019;47.630;8.262;2023-03-23T07:10:38;21.30;33.60
27823;DHT22;29019;47.630;8.262;2023-03-23T07:14:38;21.30;33.70
27823;DHT22;29019;47.630;8.262;2023-03-23T07:18:39;21.40;33.70
27823;DHT22;29019;47.630;8.262;2023-03-23T07:22:40;21.40;33.60
27823;DHT22;29019;47.630;8.262;2023-03-23T07:26:40;21.40;33.60
27823;DHT22;29019;47.630;8.262;2023-03-23T07:30:41;21.40;33.60
27823;DHT22;29019;47.630;8.262;2023-03-23T07:34:42;21.50;33.70
27823;DHT22;29019;47.630;8.262;2023-03-23T07:38:42;21.50;33.70
27823;DHT22;29019;47.630;8.262;2023-03-23T07:42:45;21.50;33.80
27823;DHT22;29019;47.630;8.262;2023-03-23T07:46:46;21.40;33.80
27823;DHT22;29019;47.630;8.262;2023-03-23T07:50:47;21.50;33.70
27823;DHT22;29019;47.630;8.262;2023-03-23T07:54:47;21.40;33.70
27823;DHT22;29019;47.630;8.262;2023-03-23T07:58:48;21.50;33.80
27823;DHT22;29019;47.630;8.262;2023-03-23T08:02:53;21.40;33.80
27823;DHT22;29019;47.630;8.262;2023-03-23T08:06:55;21.40;33.90
27823;DHT22;29019;47.630;8.262;2023-03-23T08:10:56;21.40;33.90
27823;DHT22;29019;47.630;8.262;2023-03-23T08:14:57;21.40;33.90
27823;DHT22;29019;47.630;8.262;2023-03-23T08:18:57;21.40;33.90
27823;DHT22;29019;47.630;8.262;2023-03-23T08:22:58;21.40;33.90
27823;DHT22;29019;47.630;8.262;2023-03-23T08:27:00;21.40;33.80
27823;DHT22;29019;47.630;8.262;2023-03-23T08:31:04;21.40;33.80
27823;DHT22;29019;47.630;8.262;2023-03-23T08:35:07;21.40;33.80
27823;DHT22;29019;47.630;8.262;2023-03-23T08:39:09;21.40;34.30
27823;DHT22;29019;47.630;8.262;2023-03-23T08:43:10;21.40;33.80
27823;DHT22;29019;47.630;8.262;2023-03-23T08:47:10;21.40;33.80
27823;DHT22;29019;47.630;8.262;2023-03-23T08:51:11;21.30;33.80
27823;DHT22;29019;47.630;8.262;2023-03-23T08:55:12;21.30;33.70
27823;DHT22;29019;47.630;8.262;2023-03-23T08:59:12;21.40;33.80
27823;DHT22;29019;47.630;8.262;2023-03-23T09:03:13;21.30;33.80
27823;DHT22;29019;47.630;8.262;2023-03-23T09:07:13;21.30;33.70
27823;DHT22;29019;47.630;8.262;2023-03-23T09:11:14;21.30;33.70
27823;DHT22;29019;47.630;8.262;2023-03-23T09:15:16;21.30;33.70
27823;DHT22;29019;47.630;8.262;2023-03-23T09:19:16;21.30;33.70
27823;DHT22;29019;47.630;8.262;2023-03-23T09:23:18;21.30;33.70
27823;DHT22;29019;47.630;8.262;2023-03-23T09:27:18;21.40;33.70
27823;DHT22;29019;47.630;8.262;2023-03-23T09:31:19;21.40;33.70
27823;DHT22;29019;47.630;8.262;2023-03-23T09:35:24;21.40;33.70
27823;DHT22;29019;47.630;8.262;2023-03-23T09:39:24;21.40;33.60
27823;DHT22;29019;47.630;8.262;2023-03-23T09:52:00;21.40;33.60
27823;DHT22;29019;47.630;8.262;2023-03-23T09:56:01;21.40;33.60
27823;DHT22;29019;47.630;8.262;2023-03-23T10:04:12;21.40;33.60
27823;DHT22;29019;47.630;8.262;2023-03-23T10:08:19;21.40;33.60
27823;DHT22;29019;47.630;8.262;2023-03-23T10:12:38;21.40;33.60
27823;DHT22;29019;47.630;8.262;2023-03-23T10:21:00;21.40;33.60
27823;DHT22;29019;47.630;8.262;2023-03-23T10:33:16;21.40;33.60
27823;DHT22;29019;47.630;8.262;2023-03-23T10:37:20;21.40;33.60
27823;DHT22;29019;47.630;8.262;2023-03-23T10:41:22;21.40;33.70
27823;DHT22;29019;47.630;8.262;2023-03-23T10:45:25;21.40;33.70
27823;DHT22;29019;47.630;8.262;2023-03-23T10:49:28;21.30;33.60
27823;DHT22;29019;47.630;8.262;2023-03-23T10:53:32;21.40;33.70
27823;DHT22;29019;47.630;8.262;2023-03-23T10:57:33;21.40;33.80
27823;DHT22;29019;47.630;8.262;2023-03-23T11:01:34;21.30;33.70
27823;DHT22;29019;47.630;8.262;2023-03-23T11:05:40;21.40;33.80
27823;DHT22;29019;47.630;8.262;2023-03-23T11:09:50;21.40;33.80
27823;DHT22;29019;47.630;8.262;2023-03-23T11:13:56;21.40;33.80
27823;DHT22;29019;47.630;8.262;2023-03-23T11:17:58;21.40;33.80
27823;DHT22;29019;47.630;8.262;2023-03-23T11:26:13;21.40;33.90
27823;DHT22;29019;47.630;8.262;2023-03-23T11:34:18;21.40;33.80
27823;DHT22;29019;47.630;8.262;2023-03-23T11:38:19;21.40;33.80
27823;DHT22;29019;47.630;8.262;2023-03-23T11:42:22;21.40;33.80
27823;DHT22;29019;47.630;8.262;2023-03-23T11:50:30;21.40;33.90
27823;DHT22;29019;47.630;8.262;2023-03-23T11:54:33;21.50;33.80
27823;DHT22;29019;47.630;8.262;2023-03-23T11:58:34;21.50;33.80
27823;DHT22;29019;47.630;8.262;2023-03-23T12:15:32;21.50;33.80
27823;DHT22;29019;47.630;8.262;2023-03-23T12:24:01;21.40;33.70
27823;DHT22;29019;47.630;8.262;2023-03-23T12:28:18;21.40;33.80
27823;DHT22;29019;47.630;8.262;2023-03-23T12:32:47;21.40;33.80
27823;DHT22;29019;47.630;8.262;2023-03-23T12:36:53;21.50;33.80
27823;DHT22;29019;47.630;8.262;2023-03-23T12:41:16;21.40;33.70
27823;DHT22;29019;47.630;8.262;2023-03-23T12:49:46;21.40;33.80
27823;DHT22;29019;47.630;8.262;2023-03-23T12:53:51;21.40;33.80
27823;DHT22;29019;47.630;8.262;2023-03-23T12:57:57;21.50;33.90
27823;DHT22;29019;47.630;8.262;2023-03-23T13:06:15;21.40;33.90
27823;DHT22;29019;47.630;8.262;2023-03-23T13:26:42;21.50;34.00
27823;DHT22;29019;47.630;8.262;2023-03-23T13:30:52;21.50;34.00
27823;DHT22;29019;47.630;8.262;2023-03-23T13:34:52;21.50;34.00
27823;DHT22;29019;47.630;8.262;2023-03-23T13:38:53;21.50;34.10
27823;DHT22;29019;47.630;8.262;2023-03-23T13:42:54;21.50;34.00
27823;DHT22;29019;47.630;8.262;2023-03-23T13:47:07;21.50;34.00
27823;DHT22;29019;47.630;8.262;2023-03-23T13:51:23;21.50;34.00
27823;DHT22;29019;47.630;8.262;2023-03-23T13:59:30;21.50;34.00
27823;DHT22;29019;47.630;8.262;2023-03-23T14:07:31;21.50;34.00
27823;DHT22;29019;47.630;8.262;2023-03-23T14:11:31;21.50;34.00
27823;DHT22;29019;47.630;8.262;2023-03-23T14:15:37;21.50;34.00
27823;DHT22;29019;47.630;8.262;2023-03-23T14:19:41;21.50;34.00
27823;DHT22;29019;47.630;8.262;2023-03-23T14:23:42;21.50;33.90
27823;DHT22;29019;47.630;8.262;2023-03-23T14:27:43;21.50;33.90
27823;DHT22;29019;47.630;8.262;2023-03-23T14:31:48;21.50;34.00
27823;DHT22;29019;47.630;8.262;2023-03-23T14:35:49;21.50;34.00
27823;DHT22;29019;47.630;8.262;2023-03-23T14:39:51;21.50;34.00
27823;DHT22;29019;47.630;8.262;2023-03-23T14:43:52;21.50;33.90
27823;DHT22;29019;47.630;8.262;2023-03-23T14:47:53;21.50;33.90
27823;DHT22;29019;47.630;8.262;2023-03-23T14:51:54;21.50;33.90
27823;DHT22;29019;47.630;8.262;2023-03-23T14:55:55;21.50;34.00
27823;DHT22;29019;47.630;8.262;2023-03-23T14:59:57;21.50;33.90
27823;DHT22;29019;47.630;8.262;2023-03-23T15:03:59;21.50;33.90
27823;DHT22;29019;47.630;8.262;2023-03-23T15:08:02;21.50;33.90
27823;DHT22;29019;47.630;8.262;2023-03-23T15:12:03;21.40;33.90
27823;DHT22;29019;47.630;8.262;2023-03-23T15:16:05;21.50;34.00
27823;DHT22;29019;47.630;8.262;2023-03-23T15:20:07;21.50;34.00
27823;DHT22;29019;47.630;8.262;2023-03-23T15:24:19;21.50;33.90
27823;DHT22;29019;47.630;8.262;2023-03-23T15:28:21;21.50;33.90
27823;DHT22;29019;47.630;8.262;2023-03-23T15:32:29;21.50;33.90
27823;DHT22;29019;47.630;8.262;2023-03-23T15:36:31;21.50;33.90
27823;DHT22;29019;47.630;8.262;2023-03-23T15:40:33;21.50;33.90
27823;DHT22;29019;47.630;8.262;2023-03-23T15:44:33;21.50;33.90
27823;DHT22;29019;47.630;8.262;2023-03-23T15:52:54;21.50;33.90
27823;DHT22;29019;47.630;8.262;2023-03-23T15:56:55;21.40;34.00
27823;DHT22;29019;47.630;8.262;2023-03-23T16:00:55;21.40;33.90
27823;DHT22;29019;47.630;8.262;2023-03-23T16:04:56;21.50;33.90
27823;DHT22;29019;47.630;8.262;2023-03-23T16:08:57;21.50;34.00
27823;DHT22;29019;47.630;8.262;2023-03-23T16:12:57;21.50;34.10
27823;DHT22;29019;47.630;8.262;2023-03-23T16:16:58;21.50;34.00
27823;DHT22;29019;47.630;8.262;2023-03-23T16:20:58;21.60;33.90
27823;DHT22;29019;47.630;8.262;2023-03-23T16:24:59;21.60;33.80
27823;DHT22;29019;47.630;8.262;2023-03-23T16:29:00;21.70;33.90
27823;DHT22;29019;47.630;8.262;2023-03-23T16:33:02;21.70;33.90
27823;DHT22;29019;47.630;8.262;2023-03-23T16:37:02;21.80;33.80
27823;DHT22;29019;47.630;8.262;2023-03-23T16:41:03;21.80;33.80
27823;DHT22;29019;47.630;8.262;2023-03-23T16:45:03;21.90;33.90
27823;DHT22;29019;47.630;8.262;2023-03-23T16:49:05;21.90;33.90
27823;DHT22;29019;47.630;8.262;2023-03-23T16:53:06;21.90;33.70
27823;DHT22;29019;47.630;8.262;2023-03-23T16:57:07;21.90;33.80
27823;DHT22;29019;47.630;8.262;2023-03-23T17:01:07;21.90;33.80
27823;DHT22;29019;47.630;8.262;2023-03-23T17:05:08;21.90;33.80
27823;DHT22;29019;47.630;8.262;2023-03-23T17:09:10;22.00;33.90
27823;DHT22;29019;47.630;8.262;2023-03-23T17:13:10;21.90;33.90
27823;DHT22;29019;47.630;8.262;2023-03-23T17:17:11;21.90;34.00
27823;DHT22;29019;47.630;8.262;2023-03-23T17:21:11;21.90;34.00
27823;DHT22;29019;47.630;8.262;2023-03-23T17:25:12;21.90;34.10
27823;DHT22;29019;47.630;8.262;2023-03-23T17:29:12;21.90;34.10
27823;DHT22;29019;47.630;8.262;2023-03-23T17:33:13;21.90;34.10
27823;DHT22;29019;47.630;8.262;2023-03-23T17:37:13;21.90;34.20
27823;DHT22;29019;47.630;8.262;2023-03-23T17:41:14;21.90;34.30
27823;DHT22;29019;47.630;8.262;2023-03-23T17:45:14;21.80;34.30
27823;DHT22;29019;47.630;8.262;2023-03-23T17:49:15;21.80;34.30
27823;DHT22;29019;47.630;8.262;2023-03-23T17:53:15;21.80;34.30
27823;DHT22;29019;47.630;8.262;2023-03-23T17:57:17;21.80;34.40
27823;DHT22;29019;47.630;8.262;2023-03-23T18:01:18;21.80;34.40
27823;DHT22;29019;47.630;8.262;2023-03-23T18:05:18;21.80;34.50
27823;DHT22;29019;47.630;8.262;2023-03-23T18:09:19;21.80;34.50
27823;DHT22;29019;47.630;8.262;2023-03-23T18:13:19;21.80;34.40
27823;DHT22;29019;47.630;8.262;2023-03-23T18:17:20;21.80;34.50
27823;DHT22;29019;47.630;8.262;2023-03-23T18:21:21;21.80;34.50
27823;DHT22;29019;47.630;8.262;2023-03-23T18:25:22;21.80;34.40
27823;DHT22;29019;47.630;8.262;2023-03-23T18:29:23;21.80;34.40
27823;DHT22;29019;47.630;8.262;2023-03-23T18:33:23;21.80;34.20
27823;DHT22;29019;47.630;8.262;2023-03-23T18:37:24;21.90;34.30
27823;DHT22;29019;47.630;8.262;2023-03-23T18:41:25;21.90;34.40
27823;DHT22;29019;47.630;8.262;2023-03-23T18:45:26;21.90;34.40
27823;DHT22;29019;47.630;8.262;2023-03-23T18:49:26;21.90;34.40
27823;DHT22;29019;47.630;8.262;2023-03-23T18:53:28;22.00;34.40
27823;DHT22;29019;47.630;8.262;2023-03-23T18:57:28;22.00;34.30
27823;DHT22;29019;47.630;8.262;2023-03-23T19:01:29;21.90;34.20
27823;DHT22;29019;47.630;8.262;2023-03-23T19:05:29;21.90;34.30
27823;DHT22;29019;47.630;8.262;2023-03-23T19:09:30;21.90;34.40
27823;DHT22;29019;47.630;8.262;2023-03-23T19:13:32;21.90;34.30
27823;DHT22;29019;47.630;8.262;2023-03-23T19:17:35;21.90;34.50
27823;DHT22;29019;47.630;8.262;2023-03-23T19:21:37;21.90;34.50
27823;DHT22;29019;47.630;8.262;2023-03-23T19:25:38;21.90;34.50
27823;DHT22;29019;47.630;8.262;2023-03-23T19:29:39;21.90;34.50
27823;DHT22;29019;47.630;8.262;2023-03-23T19:33:39;21.90;34.30
27823;DHT22;29019;47.630;8.262;2023-03-23T19:37:40;21.80;34.50
27823;DHT22;29019;47.630;8.262;2023-03-23T19:41:40;21.90;34.50
27823;DHT22;29019;47.630;8.262;2023-03-23T19:45:41;21.90;34.50
27823;DHT22;29019;47.630;8.262;2023-03-23T19:49:41;21.80;34.40
27823;DHT22;29019;47.630;8.262;2023-03-23T19:53:42;21.80;34.50
27823;DHT22;29019;47.630;8.262;2023-03-23T19:57:42;21.80;34.50
27823;DHT22;29019;47.630;8.262;2023-03-23T20:01:43;21.80;34.50
27823;DHT22;29019;47.630;8.262;2023-03-23T20:05:44;21.80;34.60
27823;DHT22;29019;47.630;8.262;2023-03-23T20:09:45;21.80;34.70
27823;DHT22;29019;47.630;8.262;2023-03-23T20:13:45;21.80;34.70
27823;DHT22;29019;47.630;8.262;2023-03-23T20:17:47;21.80;34.60
27823;DHT22;29019;47.630;8.262;2023-03-23T20:21:48;21.80;34.70
27823;DHT22;29019;47.630;8.262;2023-03-23T20:25:48;21.80;34.60
27823;DHT22;29019;47.630;8.262;2023-03-23T20:29:49;21.80;34.60
27823;DHT22;29019;47.630;8.262;2023-03-23T20:33:55;21.80;34.50
27823;DHT22;29019;47.630;8.262;2023-03-23T20:38:00;21.80;34.50
27823;DHT22;29019;47.630;8.262;2023-03-23T20:42:01;21.90;34.50
27823;DHT22;29019;47.630;8.262;2023-03-23T20:46:02;21.90;34.50
27823;DHT22;29019;47.630;8.262;2023-03-23T20:50:04;22.00;34.50
27823;DHT22;29019;47.630;8.262;2023-03-23T20:54:05;21.90;34.50
27823;DHT22;29019;47.630;8.262;2023-03-23T20:58:05;22.00;34.40
27823;DHT22;29019;47.630;8.262;2023-03-23T21:02:07;22.00;34.40
27823;DHT22;29019;47.630;8.262;2023-03-23T21:06:11;22.00;34.30
27823;DHT22;29019;47.630;8.262;2023-03-23T21:10:12;22.00;34.30
27823;DHT22;29019;47.630;8.262;2023-03-23T21:14:12;21.90;34.40
27823;DHT22;29019;47.630;8.262;2023-03-23T21:18:13;21.90;34.50
27823;DHT22;29019;47.630;8.262;2023-03-23T21:22:14;21.90;34.60
27823;DHT22;29019;47.630;8.262;2023-03-23T21:26:18;21.90;34.60
27823;DHT22;29019;47.630;8.262;2023-03-23T21:30:19;21.90;34.70
27823;DHT22;29019;47.630;8.262;2023-03-23T21:34:20;21.90;34.70
27823;DHT22;29019;47.630;8.262;2023-03-23T21:38:21;21.90;34.60
27823;DHT22;29019;47.630;8.262;2023-03-23T21:42:25;21.80;34.60
27823;DHT22;29019;47.630;8.262;2023-03-23T21:46:29;21.90;34.70
27823;DHT22;29019;47.630;8.262;2023-03-23T21:50:34;21.80;34.60
27823;DHT22;29019;47.630;8.262;2023-03-23T21:54:36;21.80;34.70
27823;DHT22;29019;47.630;8.262;2023-03-23T21:58:37;21.80;34.70
27823;DHT22;29019;47.630;8.262;2023-03-23T22:02:37;21.80;34.70
27823;DHT22;29019;47.630;8.262;2023-03-23T22:06:38;21.80;34.70
27823;DHT22;29019;47.630;8.262;2023-03-23T22:10:39;21.80;34.70
27823;DHT22;29019;47.630;8.262;2023-03-23T22:14:40;21.80;34.70
27823;DHT22;29019;47.630;8.262;2023-03-23T22:18:41;21.80;34.60
27823;DHT22;29019;47.630;8.262;2023-03-23T22:22:42;21.80;34.50
27823;DHT22;29019;47.630;8.262;2023-03-23T22:26:42;21.80;34.50
27823;DHT22;29019;47.630;8.262;2023-03-23T22:30:43;21.70;34.50
27823;DHT22;29019;47.630;8.262;2023-03-23T22:34:44;21.70;34.50
27823;DHT22;29019;47.630;8.262;2023-03-23T22:38:46;21.70;34.50
27823;DHT22;29019;47.630;8.262;2023-03-23T22:42:47;21.70;34.50
27823;DHT22;29019;47.630;8.262;2023-03-23T22:46:47;21.70;34.60
27823;DHT22;29019;47.630;8.262;2023-03-23T22:50:48;21.70;34.60
27823;DHT22;29019;47.630;8.262;2023-03-23T22:54:49;21.70;34.50
27823;DHT22;29019;47.630;8.262;2023-03-23T22:58:49;21.60;34.50
27823;DHT22;29019;47.630;8.262;2023-03-23T23:02:50;21.60;34.50
27823;DHT22;29019;47.630;8.262;2023-03-23T23:06:50;21.60;34.50
27823;DHT22;29019;47.630;8.262;2023-03-23T23:10:51;21.60;34.50
27823;DHT22;29019;47.630;8.262;2023-03-23T23:14:52;21.60;34.60
27823;DHT22;29019;47.630;8.262;2023-03-23T23:18:53;21.60;34.60
27823;DHT22;29019;47.630;8.262;2023-03-23T23:22:54;21.60;34.60
27823;DHT22;29019;47.630;8.262;2023-03-23T23:26:55;21.60;34.70
27823;DHT22;29019;47.630;8.262;2023-03-23T23:30:55;21.60;34.70
27823;DHT22;29019;47.630;8.262;2023-03-23T23:34:56;21.60;34.70
27823;DHT22;29019;47.630;8.262;2023-03-23T23:38:57;21.50;34.60
27823;DHT22;29019;47.630;8.262;2023-03-23T23:42:58;21.50;34.70
27823;DHT22;29019;47.630;8.262;2023-03-23T23:46:59;21.50;34.60
27823;DHT22;29019;47.630;8.262;2023-03-23T23:51:01;21.50;34.70
27823;DHT22;29019;47.630;8.262;2023-03-23T23:55:02;21.50;34.70
27823;DHT22;29019;47.630;8.262;2023-03-23T23:59:02;21.50;34.80
